Time;durP1;ratioP1;P1;durP2;ratioP2;P2;SDS_P1;SDS_P2;PMS_P1;PMS_P2;Temp;Humidity;BMP_temperature;BMP_pressure;BME280_temperature;BME280_humidity;BME280_pressure;Samples;Min_cycle;Max_cycle;Signal;HPM_P1;HPM_P2
2021/07/30 00:01:05;;;;;;;7.28;3.65;;;;;;;;;;5052722;28;20025;-41
2021/07/30 00:03:31;;;;;;;7.68;4.47;;;;;;;;;;5052675;28;20033;-41
2021/07/30 00:05:56;;;;;;;5.88;3.75;;;;;;;;;;5052434;28;20020;-41
2021/07/30 00:08:22;;;;;;;4.88;3.42;;;;;;;;;;5052578;28;20029;-41
2021/07/30 00:10:47;;;;;;;7.40;4.15;;;;;;;;;;5051173;28;20021;-42
2021/07/30 00:13:13;;;;;;;6.20;3.80;;;;;;;;;;5052408;28;20082;-41
2021/07/30 00:15:38;;;;;;;5.95;3.97;;;;;;;;;;5052638;28;20025;-41
2021/07/30 00:18:04;;;;;;;4.68;3.40;;;;;;;;;;5052848;28;20025;-42
2021/07/30 00:20:30;;;;;;;8.32;3.45;;;;;;;;;;5050991;28;20478;-41
2021/07/30 00:22:55;;;;;;;7.38;4.07;;;;;;;;;;5052329;28;20040;-41
2021/07/30 00:25:20;;;;;;;8.77;3.63;;;;;;;;;;5052309;28;20021;-43
2021/07/30 00:27:46;;;;;;;6.25;3.80;;;;;;;;;;5052450;28;20029;-41
2021/07/30 00:30:11;;;;;;;5.03;3.80;;;;;;;;;;5051037;28;20021;-41
2021/07/30 00:32:37;;;;;;;8.05;3.70;;;;;;;;;;5052147;28;20079;-42
2021/07/30 00:35:02;;;;;;;12.23;3.60;;;;;;;;;;5052082;28;20029;-42
2021/07/30 00:37:28;;;;;;;8.07;3.38;;;;;;;;;;5050895;28;20493;-41
2021/07/30 00:39:53;;;;;;;10.38;3.65;;;;;;;;;;5052300;28;20017;-41
2021/07/30 00:42:18;;;;;;;7.10;3.65;;;;;;;;;;5052155;28;20463;-41
2021/07/30 00:44:44;;;;;;;9.07;4.18;;;;;;;;;;5052307;28;20025;-42
2021/07/30 00:47:09;;;;;;;9.23;3.60;;;;;;;;;;5052085;28;20396;-41
2021/07/30 00:49:35;;;;;;;5.80;3.35;;;;;;;;;;5052098;28;20031;-41
2021/07/30 00:52:01;;;;;;;6.88;3.90;;;;;;;;;;5051799;28;20025;-42
2021/07/30 00:54:26;;;;;;;5.32;3.95;;;;;;;;;;5051997;28;20484;-42
2021/07/30 00:56:56;;;;;;;7.80;4.10;;;;;;;;;;5055726;28;20029;-42
2021/07/30 00:59:22;;;;;;;10.32;4.25;;;;;;;;;;5056394;28;20028;-41
2021/07/30 01:01:48;;;;;;;9.55;4.22;;;;;;;;;;5056117;28;20083;-41
2021/07/30 01:04:13;;;;;;;8.10;4.68;;;;;;;;;;5056163;28;20025;-41
2021/07/30 01:06:39;;;;;;;6.97;4.07;;;;;;;;;;5071363;28;20029;-42
2021/07/30 01:09:05;;;;;;;9.90;3.58;;;;;;;;;;5054891;28;20028;-41
2021/07/30 01:11:30;;;;;;;9.82;4.05;;;;;;;;;;5055330;28;20476;-41
2021/07/30 01:13:56;;;;;;;7.28;3.90;;;;;;;;;;5054326;28;20047;-41
2021/07/30 01:16:21;;;;;;;8.85;3.70;;;;;;;;;;5055667;28;20063;-41
2021/07/30 01:18:47;;;;;;;8.43;4.28;;;;;;;;;;5055987;28;20020;-42
2021/07/30 01:21:15;;;;;;;7.13;4.65;;;;;;;;;;5055783;28;20061;-42
2021/07/30 01:23:40;;;;;;;7.10;3.38;;;;;;;;;;5055799;28;20096;-42
2021/07/30 01:26:06;;;;;;;5.45;3.70;;;;;;;;;;5054583;28;20112;-41
2021/07/30 01:28:31;;;;;;;6.80;3.55;;;;;;;;;;5055530;28;20440;-41
2021/07/30 01:30:58;;;;;;;4.60;3.25;;;;;;;;;;5055353;28;20036;-41
2021/07/30 01:33:23;;;;;;;5.93;3.75;;;;;;;;;;5055487;28;20052;-41
2021/07/30 01:35:49;;;;;;;9.13;3.55;;;;;;;;;;5055285;28;20072;-41
2021/07/30 01:38:14;;;;;;;9.35;4.63;;;;;;;;;;5055641;28;20367;-42
2021/07/30 01:40:39;;;;;;;7.10;3.90;;;;;;;;;;5070759;28;20159;-42
2021/07/30 01:43:05;;;;;;;6.45;3.22;;;;;;;;;;5055465;28;20036;-42
2021/07/30 01:45:30;;;;;;;5.88;3.80;;;;;;;;;;5055454;28;20036;-42
2021/07/30 01:47:55;;;;;;;9.98;3.50;;;;;;;;;;5055081;28;20070;-41
2021/07/30 01:50:21;;;;;;;8.60;4.15;;;;;;;;;;5055185;28;20111;-41
2021/07/30 01:52:46;;;;;;;6.78;4.40;;;;;;;;;;5054693;28;20045;-41
2021/07/30 01:55:11;;;;;;;6.55;3.55;;;;;;;;;;5054949;28;20041;-42
2021/07/30 01:57:37;;;;;;;7.68;3.40;;;;;;;;;;5053771;28;20033;-41
2021/07/30 02:00:03;;;;;;;6.07;4.00;;;;;;;;;;5070179;28;20025;-42
2021/07/30 02:02:37;;;;;;;7.70;3.88;;;;;;;;;;5054913;28;20561;-41
2021/07/30 02:05:05;;;;;;;7.07;3.25;;;;;;;;;;5055045;28;20219;-41
2021/07/30 02:07:30;;;;;;;14.60;4.57;;;;;;;;;;5054466;28;20479;-41
2021/07/30 02:09:57;;;;;;;9.82;4.10;;;;;;;;;;5054796;28;20036;-42
2021/07/30 02:12:23;;;;;;;8.73;3.83;;;;;;;;;;5054617;28;20013;-42
2021/07/30 02:14:48;;;;;;;6.95;4.00;;;;;;;;;;5069895;28;20048;-41
2021/07/30 02:17:13;;;;;;;6.70;4.35;;;;;;;;;;5054961;28;20019;-40
2021/07/30 02:19:39;;;;;;;6.38;3.50;;;;;;;;;;5054553;28;20082;-42
2021/07/30 02:22:04;;;;;;;7.07;3.50;;;;;;;;;;5054694;28;20422;-44
2021/07/30 02:24:29;;;;;;;5.95;3.70;;;;;;;;;;5054437;28;20373;-42
2021/07/30 02:26:55;;;;;;;5.60;3.90;;;;;;;;;;5054378;28;20064;-41
2021/07/30 02:29:20;;;;;;;9.40;3.95;;;;;;;;;;5053460;28;20108;-41
2021/07/30 02:31:48;;;;;;;4.60;3.78;;;;;;;;;;5054248;28;20537;-41
2021/07/30 02:34:14;;;;;;;5.22;3.97;;;;;;;;;;5054235;28;20041;-41
2021/07/30 02:36:39;;;;;;;6.97;4.30;;;;;;;;;;5054443;28;20023;-42
2021/07/30 02:39:04;;;;;;;5.20;3.35;;;;;;;;;;5054306;28;20112;-42
2021/07/30 02:41:30;;;;;;;4.85;3.53;;;;;;;;;;5054103;28;20064;-41
2021/07/30 02:43:55;;;;;;;7.47;3.95;;;;;;;;;;5053973;28;20029;-42
2021/07/30 02:46:20;;;;;;;4.20;3.75;;;;;;;;;;5054441;28;20016;-41
2021/07/30 02:48:46;;;;;;;8.07;3.88;;;;;;;;;;5053789;28;20061;-43
2021/07/30 02:51:14;;;;;;;7.40;3.17;;;;;;;;;;5054073;28;20017;-41
2021/07/30 02:53:40;;;;;;;14.32;4.05;;;;;;;;;;5053804;28;20049;-41
2021/07/30 02:56:06;;;;;;;6.88;3.65;;;;;;;;;;5053685;28;20403;-41
2021/07/30 02:58:31;;;;;;;7.57;3.53;;;;;;;;;;5054140;28;20108;-41
2021/07/30 03:00:58;;;;;;;7.93;3.50;;;;;;;;;;5054020;28;20021;-41
2021/07/30 03:03:23;;;;;;;5.50;3.42;;;;;;;;;;5053594;28;20501;-43
2021/07/30 03:05:48;;;;;;;7.60;4.18;;;;;;;;;;5052775;28;20049;-42
2021/07/30 03:08:14;;;;;;;7.82;3.58;;;;;;;;;;5053941;28;20029;-41
2021/07/30 03:10:39;;;;;;;9.88;4.43;;;;;;;;;;5053855;28;20467;-41
2021/07/30 03:13:05;;;;;;;9.68;3.83;;;;;;;;;;5053562;28;20028;-42
2021/07/30 03:15:30;;;;;;;9.38;4.72;;;;;;;;;;5053481;28;20623;-42
2021/07/30 03:17:55;;;;;;;7.90;3.80;;;;;;;;;;5052706;28;20032;-41
2021/07/30 03:20:21;;;;;;;5.85;3.40;;;;;;;;;;5053762;28;20387;-41
2021/07/30 03:22:46;;;;;;;7.35;4.22;;;;;;;;;;5053184;28;20471;-42
2021/07/30 03:25:12;;;;;;;6.30;4.13;;;;;;;;;;5053377;28;20052;-41
2021/07/30 03:27:37;;;;;;;9.55;3.97;;;;;;;;;;5068697;28;20025;-42
2021/07/30 03:30:03;;;;;;;5.95;3.70;;;;;;;;;;5053508;28;20463;-41
2021/07/30 03:32:28;;;;;;;8.32;3.72;;;;;;;;;;5053045;28;20598;-41
2021/07/30 03:34:54;;;;;;;7.88;3.10;;;;;;;;;;5053305;28;20120;-41
2021/07/30 03:37:19;;;;;;;5.43;3.92;;;;;;;;;;5053168;28;20025;-41
2021/07/30 03:39:44;;;;;;;7.20;4.05;;;;;;;;;;5053021;28;20605;-41
2021/07/30 03:42:10;;;;;;;4.65;3.42;;;;;;;;;;5052931;28;20040;-42
2021/07/30 03:44:35;;;;;;;7.78;4.15;;;;;;;;;;5053389;28;20099;-41
2021/07/30 03:47:01;;;;;;;6.97;3.88;;;;;;;;;;5052937;28;20079;-46
2021/07/30 03:49:26;;;;;;;11.60;5.13;;;;;;;;;;5051629;28;20028;-41
2021/07/30 03:51:51;;;;;;;10.18;4.93;;;;;;;;;;5052833;28;20120;-41
2021/07/30 03:54:20;;;;;;;7.05;4.63;;;;;;;;;;5052544;28;20063;-41
2021/07/30 03:56:45;;;;;;;4.95;3.47;;;;;;;;;;5053256;28;20477;-41
2021/07/30 03:59:11;;;;;;;7.88;4.85;;;;;;;;;;5052937;28;20057;-41
2021/07/30 04:01:36;;;;;;;7.30;4.30;;;;;;;;;;5052773;28;20028;-42
2021/07/30 04:04:02;;;;;;;9.85;3.60;;;;;;;;;;5052596;28;20021;-42
2021/07/30 04:06:27;;;;;;;9.20;4.00;;;;;;;;;;5052629;28;20047;-41
2021/07/30 04:08:52;;;;;;;10.00;4.13;;;;;;;;;;5052813;28;20051;-41
2021/07/30 04:11:18;;;;;;;5.78;3.85;;;;;;;;;;5051620;28;20021;-41
2021/07/30 04:13:46;;;;;;;7.47;4.15;;;;;;;;;;5052401;28;20092;-41
2021/07/30 04:16:11;;;;;;;10.10;4.80;;;;;;;;;;5051129;28;20044;-41
2021/07/30 04:18:36;;;;;;;6.05;3.70;;;;;;;;;;5052418;28;20016;-41
2021/07/30 04:21:06;;;;;;;4.60;3.45;;;;;;;;;;5052536;28;20380;-42
2021/07/30 04:23:32;;;;;;;7.57;3.72;;;;;;;;;;5052563;28;20021;-41
2021/07/30 04:25:57;;;;;;;5.80;3.78;;;;;;;;;;5050984;28;20039;-41
2021/07/30 04:28:22;;;;;;;6.28;3.63;;;;;;;;;;5052312;28;20047;-42
2021/07/30 04:30:48;;;;;;;4.43;3.35;;;;;;;;;;5052404;28;20021;-41
2021/07/30 04:33:13;;;;;;;6.35;3.70;;;;;;;;;;5052491;28;20048;-41
2021/07/30 04:35:39;;;;;;;6.15;3.50;;;;;;;;;;5052018;28;20501;-42
2021/07/30 04:38:04;;;;;;;17.00;4.47;;;;;;;;;;5052179;28;20017;-41
2021/07/30 04:40:30;;;;;;;10.75;3.78;;;;;;;;;;5052532;28;20025;-42
2021/07/30 04:42:55;;;;;;;7.88;4.20;;;;;;;;;;5052213;28;20021;-42
2021/07/30 04:45:21;;;;;;;9.07;3.78;;;;;;;;;;5052185;28;20471;-41
2021/07/30 04:47:46;;;;;;;5.10;3.65;;;;;;;;;;5052109;28;20017;-41
2021/07/30 04:50:12;;;;;;;4.93;3.50;;;;;;;;;;5052223;28;20028;-41
2021/07/30 04:52:38;;;;;;;7.22;4.25;;;;;;;;;;5052146;28;20068;-42
2021/07/30 04:55:03;;;;;;;5.72;3.10;;;;;;;;;;5052161;28;20041;-42
2021/07/30 04:57:28;;;;;;;11.20;3.75;;;;;;;;;;5051998;28;20017;-42
2021/07/30 04:59:54;;;;;;;7.05;3.70;;;;;;;;;;5052271;28;20040;-41
2021/07/30 05:02:19;;;;;;;5.78;3.92;;;;;;;;;;5051978;28;20025;-41
2021/07/30 05:04:45;;;;;;;6.82;3.67;;;;;;;;;;5051982;28;20032;-41
2021/07/30 05:07:10;;;;;;;7.72;3.58;;;;;;;;;;5051901;28;20028;-42
2021/07/30 05:09:36;;;;;;;8.02;4.03;;;;;;;;;;5051955;28;20387;-41
2021/07/30 05:12:01;;;;;;;5.85;3.55;;;;;;;;;;5052131;28;20027;-40
2021/07/30 05:14:26;;;;;;;5.45;3.47;;;;;;;;;;5052038;28;20065;-41
2021/07/30 05:16:52;;;;;;;5.90;3.72;;;;;;;;;;5051858;28;20410;-41
2021/07/30 05:19:17;;;;;;;6.45;3.70;;;;;;;;;;5051775;28;20025;-42
2021/07/30 05:21:43;;;;;;;4.22;3.13;;;;;;;;;;5051876;28;20040;-42
2021/07/30 05:24:08;;;;;;;6.88;3.65;;;;;;;;;;5052005;28;20060;-41
2021/07/30 05:26:33;;;;;;;5.70;2.95;;;;;;;;;;5051694;28;20070;-42
2021/07/30 05:28:59;;;;;;;7.88;3.90;;;;;;;;;;5051707;28;20029;-41
2021/07/30 05:31:24;;;;;;;7.47;3.67;;;;;;;;;;5051791;28;20117;-41
2021/07/30 05:33:50;;;;;;;6.40;4.05;;;;;;;;;;5051239;28;20029;-40
2021/07/30 05:36:16;;;;;;;8.20;4.07;;;;;;;;;;5051974;28;20116;-42
2021/07/30 05:38:42;;;;;;;4.32;3.20;;;;;;;;;;5051585;28;20396;-41
2021/07/30 05:41:11;;;;;;;12.70;3.92;;;;;;;;;;5052578;28;20029;-42
2021/07/30 05:43:39;;;;;;;5.97;3.58;;;;;;;;;;5055275;28;20040;-42
2021/07/30 05:46:05;;;;;;;9.18;4.25;;;;;;;;;;5055447;28;20017;-42
2021/07/30 05:48:31;;;;;;;8.82;4.07;;;;;;;;;;5055463;28;20487;-42
2021/07/30 05:50:56;;;;;;;4.53;3.80;;;;;;;;;;5055325;28;20463;-42
2021/07/30 05:53:21;;;;;;;7.95;4.30;;;;;;;;;;5054942;28;20519;-41
2021/07/30 05:55:47;;;;;;;5.57;3.88;;;;;;;;;;5055048;28;20032;-41
2021/07/30 05:58:12;;;;;;;6.30;3.80;;;;;;;;;;5054943;28;20048;-43
2021/07/30 06:00:38;;;;;;;10.32;4.07;;;;;;;;;;5055008;28;20053;-42
2021/07/30 06:03:03;;;;;;;7.20;3.22;;;;;;;;;;5055032;28;20123;-42
2021/07/30 06:05:29;;;;;;;9.20;3.50;;;;;;;;;;5055463;28;20104;-42
2021/07/30 06:07:57;;;;;;;6.22;3.90;;;;;;;;;;5054993;28;20464;-41
2021/07/30 06:10:23;;;;;;;8.32;3.83;;;;;;;;;;5054788;28;20068;-42
2021/07/30 06:12:49;;;;;;;6.32;3.55;;;;;;;;;;5054918;28;20021;-41
2021/07/30 06:15:14;;;;;;;7.07;3.55;;;;;;;;;;5054814;28;20480;-42
2021/07/30 06:17:39;;;;;;;6.85;3.45;;;;;;;;;;5054922;28;20075;-42
2021/07/30 06:20:07;;;;;;;7.78;3.83;;;;;;;;;;5054827;28;20158;-42
2021/07/30 06:22:34;;;;;;;5.60;3.33;;;;;;;;;;5054702;28;20044;-42
2021/07/30 06:24:59;;;;;;;7.13;3.90;;;;;;;;;;5054772;28;20021;-41
2021/07/30 06:27:25;;;;;;;10.45;3.63;;;;;;;;;;5054762;28;20467;-41
2021/07/30 06:29:50;;;;;;;6.75;3.30;;;;;;;;;;5054261;28;20020;-42
2021/07/30 06:32:15;;;;;;;8.68;3.78;;;;;;;;;;5069777;28;20111;-41
2021/07/30 06:34:41;;;;;;;6.47;3.97;;;;;;;;;;5054459;28;20053;-41
2021/07/30 06:37:06;;;;;;;6.43;3.20;;;;;;;;;;5054198;28;20384;-41
2021/07/30 06:39:32;;;;;;;4.38;3.40;;;;;;;;;;5053324;28;20017;-41
2021/07/30 06:41:57;;;;;;;6.07;3.58;;;;;;;;;;5052798;28;20395;-42
2021/07/30 06:44:23;;;;;;;5.38;3.30;;;;;;;;;;5054174;28;20430;-42
2021/07/30 06:46:49;;;;;;;5.90;3.97;;;;;;;;;;5069314;28;20463;-42
2021/07/30 06:49:14;;;;;;;6.15;3.15;;;;;;;;;;5054191;28;20021;-41
2021/07/30 06:51:39;;;;;;;7.35;4.38;;;;;;;;;;5053779;28;20438;-42
2021/07/30 06:54:05;;;;;;;9.40;4.05;;;;;;;;;;5052593;28;20076;-41
2021/07/30 06:56:30;;;;;;;5.55;3.63;;;;;;;;;;5054000;28;20029;-41
2021/07/30 06:58:55;;;;;;;6.93;4.00;;;;;;;;;;5053847;28;20032;-42
2021/07/30 07:01:21;;;;;;;6.68;3.42;;;;;;;;;;5054403;28;20033;-42
2021/07/30 07:03:47;;;;;;;11.70;4.78;;;;;;;;;;5053760;28;20043;-41
2021/07/30 07:06:15;;;;;;;7.72;4.00;;;;;;;;;;5053634;28;20025;-42
2021/07/30 07:08:41;;;;;;;5.18;3.47;;;;;;;;;;5053770;28;20505;-41
2021/07/30 07:11:06;;;;;;;8.35;3.97;;;;;;;;;;5053580;28;20037;-42
2021/07/30 07:13:32;;;;;;;4.72;2.75;;;;;;;;;;5053486;28;20036;-42
2021/07/30 07:15:57;;;;;;;10.70;3.30;;;;;;;;;;5053725;28;20041;-41
2021/07/30 07:18:22;;;;;;;5.20;3.20;;;;;;;;;;5053458;28;20159;-43
2021/07/30 07:20:48;;;;;;;5.88;3.65;;;;;;;;;;5053408;28;20025;-41
2021/07/30 07:23:13;;;;;;;5.65;3.25;;;;;;;;;;5053603;28;20013;-42
2021/07/30 07:25:39;;;;;;;5.18;3.53;;;;;;;;;;5053569;28;20029;-41
2021/07/30 07:28:04;;;;;;;5.78;2.83;;;;;;;;;;5053545;28;20024;-41
2021/07/30 07:30:30;;;;;;;6.35;3.47;;;;;;;;;;5053239;28;20124;-41
2021/07/30 07:32:55;;;;;;;8.93;3.70;;;;;;;;;;5053378;28;20040;-41
2021/07/30 07:35:20;;;;;;;5.18;2.90;;;;;;;;;;5053415;28;20040;-41
2021/07/30 07:37:46;;;;;;;5.40;3.50;;;;;;;;;;5053395;28;20104;-42
2021/07/30 07:40:12;;;;;;;7.70;3.50;;;;;;;;;;5053276;28;20025;-41
2021/07/30 07:42:37;;;;;;;7.10;3.42;;;;;;;;;;5052955;28;20483;-40
2021/07/30 07:45:02;;;;;;;6.55;3.20;;;;;;;;;;5052916;28;20128;-41
2021/07/30 07:47:28;;;;;;;5.95;3.75;;;;;;;;;;5052993;28;20017;-41
2021/07/30 07:49:53;;;;;;;5.88;3.28;;;;;;;;;;5052875;28;20083;-42
2021/07/30 07:52:19;;;;;;;5.03;3.42;;;;;;;;;;5052931;28;20052;-42
2021/07/30 07:54:44;;;;;;;4.65;3.53;;;;;;;;;;5052995;28;20094;-41
2021/07/30 07:57:09;;;;;;;4.45;3.53;;;;;;;;;;5052644;28;20029;-41
2021/07/30 07:59:36;;;;;;;4.75;3.20;;;;;;;;;;5052798;28;20072;-41
2021/07/30 08:02:04;;;;;;;11.45;3.22;;;;;;;;;;5052522;28;20021;-41
2021/07/30 08:04:30;;;;;;;6.95;3.83;;;;;;;;;;5052597;28;20055;-41
2021/07/30 08:06:55;;;;;;;5.38;3.65;;;;;;;;;;5052636;28;20472;-41
2021/07/30 08:09:21;;;;;;;6.15;3.78;;;;;;;;;;5052493;28;20384;-42
2021/07/30 08:11:46;;;;;;;7.78;3.70;;;;;;;;;;5052724;28;20023;-41
2021/07/30 08:14:11;;;;;;;6.40;3.95;;;;;;;;;;5052463;28;20025;-41
2021/07/30 08:16:37;;;;;;;5.53;3.13;;;;;;;;;;5051038;28;20028;-43
2021/07/30 08:19:03;;;;;;;3.85;3.20;;;;;;;;;;5051154;28;20040;-41
2021/07/30 08:21:30;;;;;;;12.13;3.88;;;;;;;;;;5052582;28;20017;-42
2021/07/30 08:23:56;;;;;;;9.85;4.22;;;;;;;;;;5052346;28;20032;-42
2021/07/30 08:26:21;;;;;;;5.43;3.33;;;;;;;;;;5052358;28;20021;-41
2021/07/30 08:28:46;;;;;;;6.60;3.63;;;;;;;;;;5052274;28;20036;-41
2021/07/30 08:31:12;;;;;;;8.05;3.85;;;;;;;;;;5052173;28;20017;-41
2021/07/30 08:33:37;;;;;;;5.40;3.17;;;;;;;;;;5052135;28;20035;-41
2021/07/30 08:36:05;;;;;;;4.47;3.38;;;;;;;;;;5052401;28;20039;-41
2021/07/30 08:38:30;;;;;;;5.38;3.58;;;;;;;;;;5052237;28;20051;-42
2021/07/30 08:40:56;;;;;;;7.40;3.97;;;;;;;;;;5052380;28;20107;-40
2021/07/30 08:43:21;;;;;;;9.38;4.57;;;;;;;;;;5052475;28;20021;-41
2021/07/30 08:45:51;;;;;;;10.68;3.67;;;;;;;;;;5050954;28;20437;-41
2021/07/30 08:48:16;;;;;;;9.63;3.60;;;;;;;;;;5052292;28;20426;-41
2021/07/30 08:50:42;;;;;;;8.77;4.10;;;;;;;;;;5052422;28;20114;-41
2021/07/30 08:53:08;;;;;;;6.03;4.05;;;;;;;;;;5051732;28;20072;-41
2021/07/30 08:55:34;;;;;;;7.57;4.47;;;;;;;;;;5052108;28;20391;-41
2021/07/30 08:57:59;;;;;;;7.60;4.32;;;;;;;;;;5052219;28;20501;-41
2021/07/30 09:00:25;;;;;;;9.55;5.60;;;;;;;;;;5052038;28;20028;-41
2021/07/30 09:02:53;;;;;;;6.28;4.65;;;;;;;;;;5051894;28;20032;-42
2021/07/30 09:05:28;;;;;;;10.18;5.25;;;;;;;;;;5052178;28;20378;-42
2021/07/30 09:07:54;;;;;;;8.68;4.30;;;;;;;;;;5050473;28;20087;-41
2021/07/30 09:10:29;;;;;;;7.28;4.30;;;;;;;;;;5051940;28;20045;-42
2021/07/30 09:13:14;;;;;;;9.73;5.32;;;;;;;;;;5051745;28;20476;-41
2021/07/30 09:15:40;;;;;;;10.25;6.05;;;;;;;;;;5052049;28;20037;-41
2021/07/30 09:18:06;;;;;;;9.27;4.90;;;;;;;;;;5055792;28;20025;-42
2021/07/30 09:20:32;;;;;;;10.27;5.30;;;;;;;;;;5055905;28;20029;-42
2021/07/30 09:22:57;;;;;;;9.40;4.88;;;;;;;;;;5055475;28;20013;-41
2021/07/30 09:25:33;;;;;;;10.50;4.15;;;;;;;;;;5055660;28;20116;-41
2021/07/30 09:28:05;;;;;;;7.32;4.38;;;;;;;;;;5055794;28;20111;-41
2021/07/30 09:30:31;;;;;;;15.20;4.80;;;;;;;;;;5054345;28;20036;-41
2021/07/30 09:32:57;;;;;;;6.35;4.13;;;;;;;;;;5055458;28;20375;-42
2021/07/30 09:35:22;;;;;;;14.77;5.43;;;;;;;;;;5055670;28;20372;-41
2021/07/30 09:38:08;;;;;;;9.10;4.97;;;;;;;;;;5055356;28;20019;-41
2021/07/30 09:40:33;;;;;;;6.20;5.13;;;;;;;;;;5055320;28;20037;-41
2021/07/30 09:43:18;;;;;;;9.07;5.53;;;;;;;;;;5053838;28;20017;-41
2021/07/30 09:45:44;;;;;;;9.52;5.68;;;;;;;;;;5055267;28;20071;-41
2021/07/30 09:48:09;;;;;;;5.47;4.05;;;;;;;;;;5055122;28;20044;-41
2021/07/30 09:50:35;;;;;;;10.73;4.68;;;;;;;;;;5055219;28;20051;-42
2021/07/30 09:53:02;;;;;;;10.05;4.70;;;;;;;;;;5053701;28;20533;-41
2021/07/30 09:55:27;;;;;;;8.65;4.97;;;;;;;;;;5055277;28;20037;-41
2021/07/30 09:57:53;;;;;;;9.68;5.53;;;;;;;;;;5053872;28;20059;-42
2021/07/30 10:00:20;;;;;;;8.68;5.38;;;;;;;;;;5055015;28;20025;-42
2021/07/30 10:02:46;;;;;;;8.95;4.85;;;;;;;;;;5054903;28;20021;-41
2021/07/30 10:05:15;;;;;;;6.50;4.47;;;;;;;;;;5054803;28;20041;-41
2021/07/30 10:07:41;;;;;;;8.73;4.38;;;;;;;;;;5054870;28;20483;-42
2021/07/30 10:10:27;;;;;;;9.18;4.95;;;;;;;;;;5054825;28;20040;-41
2021/07/30 10:12:54;;;;;;;17.00;5.82;;;;;;;;;;5055019;28;20146;-41
2021/07/30 10:15:21;;;;;;;6.90;4.78;;;;;;;;;;5054865;28;20055;-41
2021/07/30 10:17:55;;;;;;;7.47;5.43;;;;;;;;;;5053473;28;20090;-41
2021/07/30 10:20:22;;;;;;;10.48;4.70;;;;;;;;;;5054659;28;20040;-41
2021/07/30 10:22:50;;;;;;;8.02;5.45;;;;;;;;;;5054894;28;20013;-42
2021/07/30 10:25:22;;;;;;;12.63;5.78;;;;;;;;;;5054499;28;20061;-42
2021/07/30 10:27:48;;;;;;;;;;;;;;;;;;5055039;28;20151;-41
2021/07/30 10:30:17;;;;;;;10.15;5.18;;;;;;;;;;5054700;28;20407;-42
2021/07/30 10:32:43;;;;;;;11.15;5.10;;;;;;;;;;5054206;28;20037;-41
2021/07/30 10:35:09;;;;;;;8.52;6.15;;;;;;;;;;5054580;28;20025;-41
2021/07/30 10:37:35;;;;;;;8.48;4.63;;;;;;;;;;5054368;28;20031;-42
2021/07/30 10:40:17;;;;;;;8.00;4.97;;;;;;;;;;5054202;28;20021;-41
2021/07/30 10:43:02;;;;;;;13.20;6.27;;;;;;;;;;5054518;28;20379;-41
2021/07/30 10:45:28;;;;;;;9.38;5.88;;;;;;;;;;5054231;28;20031;-41
2021/07/30 10:48:11;;;;;;;9.60;5.03;;;;;;;;;;5054314;28;20360;-41
2021/07/30 10:50:37;;;;;;;8.68;4.82;;;;;;;;;;5054573;28;20065;-41
2021/07/30 10:53:22;;;;;;;14.23;5.50;;;;;;;;;;5053793;28;20072;-41
2021/07/30 10:55:47;;;;;;;5.03;4.53;;;;;;;;;;5053850;28;20056;-41
2021/07/30 10:58:13;;;;;;;11.95;6.05;;;;;;;;;;5053828;28;20021;-40
2021/07/30 11:00:54;;;;;;;7.85;4.85;;;;;;;;;;5053891;28;20025;-41
2021/07/30 11:03:19;;;;;;;6.28;5.18;;;;;;;;;;5053732;28;20060;-41
2021/07/30 11:06:03;;;;;;;9.18;4.57;;;;;;;;;;5054196;28;20106;-41
2021/07/30 11:08:29;;;;;;;8.57;4.88;;;;;;;;;;5052467;28;20036;-42
2021/07/30 11:11:06;;;;;;;6.82;4.68;;;;;;;;;;5053727;28;20013;-41
2021/07/30 11:13:32;;;;;;;11.20;6.53;;;;;;;;;;5053376;28;20040;-41
2021/07/30 11:16:07;;;;;;;8.02;5.80;;;;;;;;;;5053764;28;20033;-41
2021/07/30 11:18:32;;;;;;;10.05;4.53;;;;;;;;;;5053480;28;20483;-40
2021/07/30 11:20:58;;;;;;;7.55;4.65;;;;;;;;;;5053611;28;20020;-41
2021/07/30 11:23:23;;;;;;;6.38;5.07;;;;;;;;;;5053462;28;20108;-41
2021/07/30 11:25:49;;;;;;;7.13;4.28;;;;;;;;;;5053456;28;20025;-41
2021/07/30 11:28:14;;;;;;;10.75;5.30;;;;;;;;;;5053537;28;20438;-41
2021/07/30 11:30:40;;;;;;;7.32;4.32;;;;;;;;;;5053301;28;20079;-41
2021/07/30 11:33:05;;;;;;;7.18;5.32;;;;;;;;;;5053388;28;20476;-42
2021/07/30 11:35:38;;;;;;;6.28;5.18;;;;;;;;;;5053395;28;20025;-42
2021/07/30 11:38:03;;;;;;;11.70;5.25;;;;;;;;;;5053098;28;20059;-41
2021/07/30 11:40:31;;;;;;;8.38;5.65;;;;;;;;;;5052548;28;20064;-41
2021/07/30 11:43:06;;;;;;;14.02;4.97;;;;;;;;;;5052523;28;20037;-40
2021/07/30 11:45:32;;;;;;;7.82;4.60;;;;;;;;;;5052861;28;20105;-41
2021/07/30 11:47:57;;;;;;;7.55;5.25;;;;;;;;;;5053111;28;20104;-40
2021/07/30 11:50:25;;;;;;;15.23;5.43;;;;;;;;;;5052764;28;20383;-41
2021/07/30 11:52:50;;;;;;;6.93;4.75;;;;;;;;;;5052631;28;20032;-41
2021/07/30 11:55:20;;;;;;;6.97;5.28;;;;;;;;;;5053015;28;20066;-41
2021/07/30 11:57:46;;;;;;;10.38;5.70;;;;;;;;;;5053050;28;20419;-41
2021/07/30 12:00:20;;;;;;;8.07;4.97;;;;;;;;;;5052994;28;20167;-41
2021/07/30 12:02:45;;;;;;;8.77;4.70;;;;;;;;;;5051798;28;20021;-41
2021/07/30 12:05:11;;;;;;;7.50;5.35;;;;;;;;;;5052414;28;20397;-41
2021/07/30 12:07:38;;;;;;;12.23;5.32;;;;;;;;;;5052676;28;20036;-41
2021/07/30 12:10:08;;;;;;;9.57;5.60;;;;;;;;;;5052838;28;20517;-41
2021/07/30 12:12:38;;;;;;;13.02;5.47;;;;;;;;;;5052730;28;20613;-41
2021/07/30 12:15:04;;;;;;;11.30;5.47;;;;;;;;;;5051216;28;20040;-42
2021/07/30 12:17:30;;;;;;;11.23;6.40;;;;;;;;;;5052407;28;20040;-42
2021/07/30 12:19:58;;;;;;;9.43;6.20;;;;;;;;;;5052478;28;20490;-41
2021/07/30 12:22:37;;;;;;;8.50;5.35;;;;;;;;;;5052345;28;20029;-40
2021/07/30 12:25:03;;;;;;;11.32;6.25;;;;;;;;;;5052271;28;20033;-41
2021/07/30 12:27:29;;;;;;;13.88;5.78;;;;;;;;;;5052287;28;20017;-42
2021/07/30 12:29:54;;;;;;;7.30;5.80;;;;;;;;;;5052321;28;20430;-43
2021/07/30 12:32:20;;;;;;;8.23;5.28;;;;;;;;;;5052549;28;20147;-40
2021/07/30 12:34:57;;;;;;;6.63;5.18;;;;;;;;;;5052486;28;20111;-42
2021/07/30 12:37:24;;;;;;;8.20;5.97;;;;;;;;;;5051034;28;20028;-41
2021/07/30 12:39:50;;;;;;;10.57;5.75;;;;;;;;;;5052194;28;20088;-41
2021/07/30 12:42:17;;;;;;;10.27;5.32;;;;;;;;;;5052076;28;20028;-41
2021/07/30 12:44:57;;;;;;;8.27;5.22;;;;;;;;;;5050872;28;20100;-41
2021/07/30 12:47:22;;;;;;;7.97;5.20;;;;;;;;;;5052230;28;20036;-42
2021/07/30 12:49:48;;;;;;;6.70;4.47;;;;;;;;;;5067560;28;20021;-42
2021/07/30 12:52:14;;;;;;;7.18;5.15;;;;;;;;;;5054782;28;20143;-42
2021/07/30 12:54:39;;;;;;;7.32;4.57;;;;;;;;;;5056203;28;20044;-42
2021/07/30 12:57:05;;;;;;;9.15;4.63;;;;;;;;;;5056276;28;20120;-41
2021/07/30 12:59:47;;;;;;;10.73;5.18;;;;;;;;;;5056235;28;20025;-42
2021/07/30 13:02:12;;;;;;;10.10;5.22;;;;;;;;;;5055806;28;20025;-42
2021/07/30 13:04:38;;;;;;;9.75;5.53;;;;;;;;;;5056122;28;20104;-42
2021/07/30 13:07:04;;;;;;;8.45;4.72;;;;;;;;;;5056246;28;20074;-42
2021/07/30 13:09:29;;;;;;;15.35;5.40;;;;;;;;;;5055871;28;20459;-42
2021/07/30 13:11:55;;;;;;;10.38;5.80;;;;;;;;;;5055875;28;20032;-42
2021/07/30 13:14:20;;;;;;;6.97;4.45;;;;;;;;;;5055787;28;20020;-42
2021/07/30 13:16:45;;;;;;;8.38;5.50;;;;;;;;;;5054561;28;20040;-42
2021/07/30 13:19:11;;;;;;;8.82;5.00;;;;;;;;;;5055763;28;20017;-42
2021/07/30 13:21:36;;;;;;;10.75;5.32;;;;;;;;;;5055565;28;20030;-42
2021/07/30 13:24:02;;;;;;;12.45;5.38;;;;;;;;;;5054389;28;20066;-42
2021/07/30 13:26:27;;;;;;;6.88;5.43;;;;;;;;;;5055907;28;20032;-41
2021/07/30 13:28:52;;;;;;;6.53;5.38;;;;;;;;;;5054399;28;20478;-41
2021/07/30 13:31:18;;;;;;;16.00;5.38;;;;;;;;;;5055497;28;20391;-42
2021/07/30 13:33:43;;;;;;;9.05;4.60;;;;;;;;;;5055416;28;20052;-42
2021/07/30 13:36:09;;;;;;;5.63;4.28;;;;;;;;;;5055355;28;20043;-42
2021/07/30 13:38:34;;;;;;;5.75;4.47;;;;;;;;;;5055768;28;20427;-42
2021/07/30 13:41:01;;;;;;;7.68;4.82;;;;;;;;;;5055132;28;20403;-42
2021/07/30 13:43:26;;;;;;;7.88;4.68;;;;;;;;;;5055305;28;20075;-42
2021/07/30 13:45:52;;;;;;;8.70;5.47;;;;;;;;;;5055493;28;20037;-42
2021/07/30 13:48:17;;;;;;;7.68;4.95;;;;;;;;;;5055219;28;20021;-42
2021/07/30 13:50:43;;;;;;;7.53;5.28;;;;;;;;;;5055179;28;20040;-42
2021/07/30 13:53:09;;;;;;;8.48;5.93;;;;;;;;;;5054813;28;20037;-42
2021/07/30 13:55:34;;;;;;;17.40;6.35;;;;;;;;;;5055106;28;20045;-42
2021/07/30 13:58:00;;;;;;;7.88;6.07;;;;;;;;;;5054857;28;20115;-41
2021/07/30 14:00:25;;;;;;;13.60;6.55;;;;;;;;;;5055077;28;20116;-42
2021/07/30 14:02:50;;;;;;;8.93;5.97;;;;;;;;;;5054698;28;20049;-42
2021/07/30 14:05:16;;;;;;;6.80;5.20;;;;;;;;;;5055034;28;20391;-42
2021/07/30 14:07:42;;;;;;;6.78;5.20;;;;;;;;;;5054959;28;20353;-42
2021/07/30 14:10:12;;;;;;;16.42;5.95;;;;;;;;;;5054766;28;20017;-42
2021/07/30 14:12:37;;;;;;;8.30;5.05;;;;;;;;;;5054716;28;20112;-42
2021/07/30 14:15:20;;;;;;;12.15;6.15;;;;;;;;;;5054929;28;20127;-42
2021/07/30 14:17:46;;;;;;;7.68;5.13;;;;;;;;;;5054986;28;20021;-45
2021/07/30 14:20:12;;;;;;;10.27;5.25;;;;;;;;;;5054919;28;20550;-42
2021/07/30 14:22:38;;;;;;;12.73;6.13;;;;;;;;;;5054763;28;20411;-41
2021/07/30 14:25:04;;;;;;;8.32;5.63;;;;;;;;;;5054586;28;20013;-42
2021/07/30 14:27:30;;;;;;;8.40;6.70;;;;;;;;;;5054517;28;20033;-42
2021/07/30 14:29:55;;;;;;;12.10;6.40;;;;;;;;;;5054385;28;20523;-42
2021/07/30 14:32:21;;;;;;;10.05;6.50;;;;;;;;;;5054467;28;20063;-42
2021/07/30 14:34:46;;;;;;;9.40;5.63;;;;;;;;;;5054205;28;20056;-42
2021/07/30 14:37:11;;;;;;;7.90;6.00;;;;;;;;;;5054654;28;20155;-42